Time;durP1;ratioP1;P1;durP2;ratioP2;P2;SDS_P1;SDS_P2;PMS_P1;PMS_P2;Temp;Humidity;BMP_temperature;BMP_pressure;BME280_temperature;BME280_humidity;BME280_pressure;Samples;Min_cycle;Max_cycle;Signal;HPM_P1;HPM_P2
2023/09/10 00:00:32;;;;;;;20.83;8.30;;;25.40;72.20;;;;;;5031318;28;20397;-67
2023/09/10 00:03:36;;;;;;;17.25;7.88;;;25.40;72.30;;;;;;5030879;28;20397;-67
2023/09/10 00:06:43;;;;;;;17.70;7.88;;;25.00;72.20;;;;;;5031065;28;20049;-67
2023/09/10 00:09:47;;;;;;;13.43;8.48;;;25.30;73.00;;;;;;5030765;28;20048;-67
2023/09/10 00:12:51;;;;;;;15.25;8.77;;;25.00;73.20;;;;;;5031025;28;20057;-67
2023/09/10 00:15:56;;;;;;;19.45;8.77;;;24.90;73.80;;;;;;5031034;28;20060;-67
2023/09/10 00:18:59;;;;;;;18.85;9.07;;;24.80;73.70;;;;;;5030692;28;20048;-66
2023/09/10 00:22:03;;;;;;;11.02;7.88;;;24.90;74.20;;;;;;5030624;28;20052;-67
2023/09/10 00:25:09;;;;;;;15.27;8.20;;;24.80;74.10;;;;;;5031387;28;20393;-67
2023/09/10 00:28:13;;;;;;;18.20;8.65;;;24.90;73.30;;;;;;5033771;28;20056;-67
2023/09/10 00:31:17;;;;;;;14.32;8.25;;;24.90;73.80;;;;;;5034475;28;20068;-67
2023/09/10 00:34:21;;;;;;;14.60;8.23;;;24.80;73.70;;;;;;5034634;28;20044;-67
2023/09/10 00:37:25;;;;;;;17.88;8.50;;;24.70;73.40;;;;;;5034716;28;20056;-67
2023/09/10 00:40:29;;;;;;;17.98;7.93;;;23.70;72.90;;;;;;5034853;28;20044;-67
2023/09/10 00:43:33;;;;;;;14.77;8.00;;;24.50;73.60;;;;;;5035042;28;20532;-67
2023/09/10 00:46:37;;;;;;;12.57;7.70;;;24.60;74.00;;;;;;5034644;28;20049;-67
2023/09/10 00:49:43;;;;;;;14.27;7.80;;;24.70;73.90;;;;;;5034625;28;20551;-67
2023/09/10 00:52:52;;;;;;;13.07;7.50;;;24.50;74.00;;;;;;5034295;28;20045;-67
2023/09/10 00:55:56;;;;;;;16.27;7.95;;;24.20;74.50;;;;;;5034240;28;20040;-67
2023/09/10 00:59:00;;;;;;;20.25;7.97;;;24.40;74.60;;;;;;5034409;28;20052;-67
2023/09/10 01:02:04;;;;;;;16.10;8.73;;;24.40;75.60;;;;;;5034002;28;20091;-67
2023/09/10 01:05:12;;;;;;;14.20;7.93;;;24.30;75.10;;;;;;5034137;28;20056;-67
2023/09/10 01:08:19;;;;;;;15.75;7.72;;;24.20;76.10;;;;;;5033310;28;20650;-67
2023/09/10 01:11:50;;;;;;;21.00;7.82;;;24.10;76.20;;;;;;5033817;28;20075;-67
2023/09/10 01:15:25;;;;;;;15.68;7.75;;;24.20;76.70;;;;;;5033739;28;20049;-67
2023/09/10 01:18:41;;;;;;;16.70;9.00;;;24.20;75.90;;;;;;5033728;28;20047;-67
2023/09/10 01:21:55;;;;;;;15.45;8.48;;;24.10;76.90;;;;;;5033977;28;20052;-67
2023/09/10 01:25:00;;;;;;;18.17;9.50;;;24.00;77.20;;;;;;5033815;28;20053;-67
2023/09/10 01:28:04;;;;;;;18.55;9.25;;;;;;;;;;5033575;28;20040;-67
2023/09/10 01:31:08;;;;;;;16.75;8.65;;;24.00;77.20;;;;;;5032655;28;20046;-67
2023/09/10 01:34:15;;;;;;;14.73;8.70;;;24.00;78.10;;;;;;5032649;28;20048;-67
2023/09/10 01:37:34;;;;;;;18.02;9.05;;;24.10;77.40;;;;;;5033813;28;20052;-67
2023/09/10 01:40:51;;;;;;;16.08;8.82;;;23.90;78.10;;;;;;5033528;28;20040;-67
2023/09/10 01:43:57;;;;;;;16.63;8.85;;;23.80;78.70;;;;;;5033698;28;20399;-67
2023/09/10 01:47:02;;;;;;;22.63;9.20;;;23.80;78.50;;;;;;5032661;28;20048;-67
2023/09/10 01:50:08;;;;;;;23.88;9.15;;;23.90;78.20;;;;;;5033379;28;20060;-67
2023/09/10 01:53:12;;;;;;;17.17;8.13;;;23.80;77.70;;;;;;5033332;28;20056;-67
2023/09/10 01:56:15;;;;;;;14.35;7.85;;;24.00;77.30;;;;;;5032318;28;20048;-67
2023/09/10 01:59:19;;;;;;;22.05;9.70;;;24.00;77.00;;;;;;5032349;28;20060;-67
2023/09/10 02:02:23;;;;;;;22.33;9.05;;;24.10;76.70;;;;;;5032153;28;20061;-67
2023/09/10 02:05:27;;;;;;;18.60;8.18;;;24.10;77.10;;;;;;5033128;28;20045;-67
2023/09/10 02:08:31;;;;;;;21.42;8.50;;;24.10;76.80;;;;;;5033204;28;20040;-67
2023/09/10 02:11:34;;;;;;;17.95;9.38;;;24.20;76.90;;;;;;5032857;28;20515;-67
2023/09/10 02:14:39;;;;;;;24.50;8.70;;;24.10;77.00;;;;;;5033014;28;20064;-67
2023/09/10 02:17:43;;;;;;;14.65;8.50;;;24.10;76.90;;;;;;5032014;28;20493;-66
2023/09/10 02:20:46;;;;;;;15.05;8.15;;;24.60;77.40;;;;;;5031895;28;20040;-66
2023/09/10 02:23:50;;;;;;;20.48;8.52;;;23.90;77.60;;;;;;5032839;28;20040;-66
2023/09/10 02:26:54;;;;;;;15.95;8.90;;;23.90;77.90;;;;;;5032433;28;20032;-67
2023/09/10 02:29:58;;;;;;;16.75;8.98;;;23.80;78.60;;;;;;5032678;28;20045;-67
2023/09/10 02:33:02;;;;;;;16.17;8.90;;;23.80;78.00;;;;;;5032280;28;20048;-67
2023/09/10 02:36:06;;;;;;;10.93;8.30;;;23.00;78.00;;;;;;5032555;28;20050;-66
2023/09/10 02:39:10;;;;;;;14.95;7.85;;;23.80;77.60;;;;;;5031528;28;20044;-66
2023/09/10 02:42:14;;;;;;;18.58;7.78;;;23.90;75.50;;;;;;5032208;28;20251;-66
2023/09/10 02:45:18;;;;;;;21.30;7.82;;;24.00;75.00;;;;;;5031399;28;20040;-66
2023/09/10 02:48:22;;;;;;;13.30;7.28;;;24.00;75.20;;;;;;5032127;28;20045;-66
2023/09/10 02:51:27;;;;;;;18.00;7.85;;;23.90;74.70;;;;;;5031021;28;20053;-66
2023/09/10 02:54:34;;;;;;;12.95;7.82;;;23.80;75.60;;;;;;5032232;28;20036;-66
2023/09/10 02:57:38;;;;;;;14.65;7.78;;;23.70;76.90;;;;;;5032119;28;20120;-67
2023/09/10 03:00:42;;;;;;;10.95;7.43;;;22.00;75.90;;;;;;5031991;28;20044;-67
2023/09/10 03:03:46;;;;;;;14.60;7.88;;;23.60;75.40;;;;;;5030976;28;20044;-67
2023/09/10 03:06:50;;;;;;;12.70;7.38;;;23.60;75.90;;;;;;5031105;28;20048;-67
2023/09/10 03:09:55;;;;;;;14.70;6.88;;;23.60;75.80;;;;;;5030880;28;20052;-67
2023/09/10 03:12:59;;;;;;;13.55;6.43;;;23.50;76.30;;;;;;5030760;28;20128;-67
2023/09/10 03:16:03;;;;;;;13.15;7.15;;;23.50;75.40;;;;;;5030609;28;20044;-67
2023/09/10 03:19:07;;;;;;;16.83;8.57;;;23.20;74.70;;;;;;5030748;28;20056;-67
2023/09/10 03:22:11;;;;;;;11.27;8.10;;;23.70;76.10;;;;;;5031777;28;20040;-67
2023/09/10 03:25:15;;;;;;;17.00;8.18;;;23.60;77.20;;;;;;5032082;28;20052;-67
2023/09/10 03:28:19;;;;;;;16.85;8.90;;;23.60;77.70;;;;;;5031685;28;20112;-67
2023/09/10 03:31:23;;;;;;;12.70;7.60;;;23.50;78.00;;;;;;5031463;28;20213;-67
2023/09/10 03:34:33;;;;;;;13.77;7.40;;;23.50;75.10;;;;;;5030817;28;20500;-67
2023/09/10 03:37:40;;;;;;;10.50;7.28;;;23.60;75.10;;;;;;5031410;28;20041;-67
2023/09/10 03:40:44;;;;;;;12.93;7.13;;;23.70;75.60;;;;;;5030433;28;20052;-67
2023/09/10 03:43:48;;;;;;;16.02;8.15;;;23.50;76.60;;;;;;5030372;28;20139;-67
2023/09/10 03:46:53;;;;;;;14.18;7.65;;;23.50;76.60;;;;;;5030530;28;20064;-67
2023/09/10 03:49:57;;;;;;;20.13;8.23;;;23.50;77.20;;;;;;5030259;28;20096;-67
2023/09/10 03:53:02;;;;;;;16.70;7.97;;;23.30;77.50;;;;;;5030592;28;20048;-67
2023/09/10 03:56:06;;;;;;;18.75;7.97;;;23.30;78.40;;;;;;5030815;28;20040;-67
2023/09/10 03:59:10;;;;;;;21.63;8.82;;;23.20;78.40;;;;;;5031096;28;20044;-67
2023/09/10 04:02:14;;;;;;;16.58;8.60;;;23.20;78.90;;;;;;5029375;28;20523;-68
2023/09/10 04:05:22;;;;;;;17.25;8.27;;;23.20;78.70;;;;;;5030116;28;20052;-67
2023/09/10 04:08:26;;;;;;;13.75;7.68;;;23.00;78.90;;;;;;5030717;28;20100;-66
2023/09/10 04:11:30;;;;;;;13.88;8.60;;;23.00;79.40;;;;;;5029802;28;20052;-67
2023/09/10 04:14:34;;;;;;;17.67;8.23;;;22.90;79.50;;;;;;5030025;28;20068;-66
2023/09/10 04:17:38;;;;;;;17.63;7.80;;;22.90;80.00;;;;;;5030925;28;20044;-67
2023/09/10 04:20:44;;;;;;;17.27;8.10;;;22.80;80.20;;;;;;5031027;28;20044;-65
2023/09/10 04:23:48;;;;;;;14.77;7.53;;;22.80;80.20;;;;;;5029914;28;20500;-65
2023/09/10 04:26:52;;;;;;;13.52;8.38;;;22.60;80.90;;;;;;5030042;28;20048;-67
2023/09/10 04:29:57;;;;;;;15.68;8.32;;;22.70;79.30;;;;;;5029789;28;20060;-67
2023/09/10 04:33:01;;;;;;;13.93;7.93;;;22.60;79.80;;;;;;5029858;28;20410;-67
2023/09/10 04:36:05;;;;;;;19.10;8.45;;;22.70;79.80;;;;;;5029994;28;20048;-67
2023/09/10 04:39:09;;;;;;;19.02;9.25;;;22.70;79.30;;;;;;5030617;28;20192;-67
2023/09/10 04:42:15;;;;;;;18.33;8.20;;;22.50;80.20;;;;;;5029595;28;20041;-67
2023/09/10 04:45:18;;;;;;;19.40;8.18;;;21.80;79.90;;;;;;5030300;28;20054;-67
2023/09/10 04:48:22;;;;;;;18.40;8.15;;;22.40;80.30;;;;;;5030766;28;20049;-67
2023/09/10 04:51:27;;;;;;;26.92;7.95;;;22.40;80.00;;;;;;5029675;28;20124;-67
2023/09/10 04:54:31;;;;;;;21.95;8.23;;;22.50;80.30;;;;;;5029888;28;20041;-67
2023/09/10 04:57:35;;;;;;;22.52;7.85;;;22.60;80.40;;;;;;5029623;28;20044;-67
2023/09/10 05:00:41;;;;;;;16.75;7.35;;;22.60;79.50;;;;;;5029609;28;20398;-67
2023/09/10 05:03:45;;;;;;;22.25;7.70;;;22.60;80.00;;;;;;5029579;28;20061;-67
2023/09/10 05:06:52;;;;;;;16.55;8.48;;;22.80;79.90;;;;;;5029795;28;20056;-68
2023/09/10 05:09:57;;;;;;;14.07;7.88;;;23.00;79.60;;;;;;5029888;28;20045;-68
2023/09/10 05:13:00;;;;;;;15.02;8.13;;;23.10;78.80;;;;;;5031739;28;20064;-68
2023/09/10 05:16:05;;;;;;;17.42;7.57;;;23.20;78.60;;;;;;5033231;28;20044;-67
2023/09/10 05:19:09;;;;;;;17.63;7.80;;;23.20;78.60;;;;;;5033813;28;20045;-68
2023/09/10 05:22:12;;;;;;;24.42;8.63;;;23.20;78.60;;;;;;5033962;28;20389;-67
2023/09/10 05:25:16;;;;;;;21.45;8.75;;;23.50;78.80;;;;;;5033733;28;20053;-67
2023/09/10 05:28:21;;;;;;;17.10;7.97;;;24.00;77.30;;;;;;5032737;28;20081;-66
2023/09/10 05:31:28;;;;;;;14.13;8.45;;;25.80;75.70;;;;;;5033610;28;20052;-67
2023/09/10 05:34:32;;;;;;;23.10;7.50;;;25.50;73.80;;;;;;5033439;28;20121;-67
2023/09/10 05:37:37;;;;;;;24.42;9.02;;;26.20;72.40;;;;;;5033112;28;20052;-67
2023/09/10 05:40:41;;;;;;;21.00;9.30;;;27.80;71.10;;;;;;5033359;28;20052;-67
2023/09/10 05:43:45;;;;;;;21.70;8.25;;;26.90;71.00;;;;;;5033302;28;20045;-66
2023/09/10 05:46:52;;;;;;;15.05;7.68;;;26.90;71.40;;;;;;5032395;28;20052;-67
2023/09/10 05:50:00;;;;;;;21.53;8.47;;;26.90;70.70;;;;;;5021805;28;20052;-67
2023/09/10 05:53:05;;;;;;;21.52;8.32;;;26.90;71.30;;;;;;5032612;28;20060;-67
2023/09/10 05:56:09;;;;;;;22.60;8.18;;;26.90;71.40;;;;;;5032092;28;20070;-67
2023/09/10 05:59:13;;;;;;;25.67;8.57;;;27.50;69.90;;;;;;5032566;28;20420;-67
2023/09/10 06:02:17;;;;;;;24.10;9.73;;;28.30;69.20;;;;;;5032485;28;20052;-67
2023/09/10 06:05:21;;;;;;;20.60;8.73;;;28.90;69.90;;;;;;5032301;28;20052;-67
2023/09/10 06:08:26;;;;;;;30.30;8.90;;;29.10;68.00;;;;;;5033265;28;20048;-67
2023/09/10 06:11:30;;;;;;;25.50;9.73;;;29.20;66.70;;;;;;5033039;28;20056;-67
2023/09/10 06:14:34;;;;;;;26.58;8.15;;;29.30;67.40;;;;;;5032160;28;20048;-67
2023/09/10 06:17:39;;;;;;;25.67;8.15;;;29.40;66.30;;;;;;5031952;28;20203;-66
2023/09/10 06:20:43;;;;;;;21.52;8.32;;;29.40;66.70;;;;;;5032846;28;20060;-67
2023/09/10 06:23:47;;;;;;;22.02;7.38;;;29.60;67.00;;;;;;5031692;28;20043;-67
2023/09/10 06:26:51;;;;;;;30.02;8.73;;;29.70;65.70;;;;;;5032542;28;20052;-67
2023/09/10 06:29:55;;;;;;;19.20;7.93;;;29.80;65.10;;;;;;5032785;28;20052;-67
2023/09/10 06:33:00;;;;;;;28.90;8.63;;;30.10;66.00;;;;;;5031601;28;20124;-67
2023/09/10 06:36:04;;;;;;;26.38;9.65;;;30.30;64.90;;;;;;5031498;28;20401;-67
2023/09/10 06:39:08;;;;;;;17.20;8.32;;;30.40;64.60;;;;;;5032598;28;20045;-67
2023/09/10 06:42:13;;;;;;;19.25;8.48;;;30.60;64.80;;;;;;5031724;28;20123;-67
2023/09/10 06:45:22;;;;;;;18.17;7.43;;;30.80;65.00;;;;;;5031604;28;20068;-67
2023/09/10 06:48:25;;;;;;;15.85;7.22;;;31.00;61.70;;;;;;5031677;28;20044;-67
2023/09/10 06:51:29;;;;;;;18.90;7.55;;;30.80;62.50;;;;;;5032130;28;20057;-67
2023/09/10 06:54:33;;;;;;;21.50;7.15;;;30.70;61.40;;;;;;5032079;28;20053;-67
2023/09/10 06:57:37;;;;;;;22.85;7.53;;;31.00;61.60;;;;;;5032093;28;20527;-68
2023/09/10 07:00:41;;;;;;;18.40;6.97;;;31.10;60.30;;;;;;5031820;28;20044;-67
2023/09/10 07:03:49;;;;;;;16.33;7.57;;;31.40;60.10;;;;;;5032126;28;20431;-67
2023/09/10 07:06:53;;;;;;;18.08;7.70;;;31.70;59.20;;;;;;5031971;28;20524;-67
2023/09/10 07:09:57;;;;;;;27.80;8.35;;;31.90;59.30;;;;;;5031662;28;20048;-67
2023/09/10 07:13:05;;;;;;;21.58;8.10;;;32.00;59.90;;;;;;5031763;28;20409;-67
2023/09/10 07:16:09;;;;;;;20.05;8.15;;;32.10;60.00;;;;;;5031749;28;20044;-66
2023/09/10 07:19:14;;;;;;;22.65;7.97;;;32.10;60.00;;;;;;5031574;28;20049;-66
2023/09/10 07:22:18;;;;;;;22.67;7.88;;;32.10;57.90;;;;;;5031480;28;20492;-67
2023/09/10 07:25:24;;;;;;;24.35;7.60;;;32.00;58.10;;;;;;5031741;28;20052;-68
2023/09/10 07:28:28;;;;;;;24.15;8.23;;;31.70;57.80;;;;;;5031707;28;20048;-66
2023/09/10 07:31:33;;;;;;;25.88;8.77;;;31.80;58.20;;;;;;5031502;28;20052;-68
2023/09/10 07:34:37;;;;;;;25.13;8.52;;;32.10;57.30;;;;;;5031254;28;20068;-68
2023/09/10 07:37:41;;;;;;;26.58;8.68;;;31.80;57.20;;;;;;5031407;28;20048;-66
2023/09/10 07:40:45;;;;;;;35.50;9.10;;;31.50;58.10;;;;;;5031434;28;20045;-68
2023/09/10 07:43:49;;;;;;;23.83;8.48;;;31.70;58.80;;;;;;5030942;28;20049;-68
2023/09/10 07:46:53;;;;;;;21.20;7.70;;;31.70;57.40;;;;;;5030813;28;20048;-68
2023/09/10 07:49:57;;;;;;;22.60;7.60;;;31.90;57.50;;;;;;5031236;28;20036;-68
2023/09/10 07:53:01;;;;;;;33.10;8.45;;;31.70;57.60;;;;;;5031291;28;20053;-68
2023/09/10 07:56:05;;;;;;;32.13;8.82;;;31.60;58.10;;;;;;5031263;28;20044;-68
2023/09/10 07:59:11;;;;;;;34.25;9.25;;;31.80;57.80;;;;;;5031269;28;20508;-68
2023/09/10 08:02:16;;;;;;;30.92;8.63;;;32.20;58.20;;;;;;5031219;28;20397;-68
2023/09/10 08:05:19;;;;;;;23.25;8.88;;;32.20;58.20;;;;;;5030811;28;20044;-68
2023/09/10 08:08:23;;;;;;;27.13;8.30;;;32.30;57.90;;;;;;5030850;28;20481;-68
2023/09/10 08:11:27;;;;;;;26.42;7.88;;;32.20;57.20;;;;;;5030667;28;20060;-68
2023/09/10 08:14:31;;;;;;;18.52;7.95;;;32.30;56.40;;;;;;5030463;28;20056;-68
2023/09/10 08:17:36;;;;;;;23.65;6.90;;;32.30;57.40;;;;;;5030631;28;20662;-68
2023/09/10 08:20:41;;;;;;;24.58;7.05;;;32.30;55.40;;;;;;5030762;28;20395;-67
2023/09/10 08:23:47;;;;;;;27.27;6.82;;;32.30;55.80;;;;;;5031662;28;20048;-67
2023/09/10 08:26:51;;;;;;;16.70;5.93;;;32.30;55.20;;;;;;5030760;28;20048;-66
2023/09/10 08:29:55;;;;;;;27.92;6.70;;;32.20;55.30;;;;;;5030811;28;20397;-67
2023/09/10 08:32:59;;;;;;;24.85;6.68;;;32.30;54.10;;;;;;5030539;28;20413;-66
2023/09/10 08:36:03;;;;;;;14.38;6.65;;;32.20;54.50;;;;;;5030825;28;20041;-66
2023/09/10 08:39:07;;;;;;;14.93;6.82;;;32.10;54.90;;;;;;5031120;28;20505;-67
2023/09/10 08:42:22;;;;;;;13.45;6.70;;;31.90;54.60;;;;;;5030928;28;20517;-66
2023/09/10 08:45:27;;;;;;;21.98;6.60;;;31.80;55.00;;;;;;5030612;28;20044;-67
2023/09/10 08:48:32;;;;;;;16.27;6.38;;;31.90;55.20;;;;;;5032960;28;20044;-66
2023/09/10 08:51:37;;;;;;;19.98;6.65;;;31.70;54.70;;;;;;5034472;28;20109;-66
2023/09/10 08:54:41;;;;;;;17.05;4.82;;;31.60;55.60;;;;;;5034262;28;20049;-68
2023/09/10 08:57:47;;;;;;;16.60;5.68;;;31.70;54.70;;;;;;5034584;28;20044;-67
2023/09/10 09:00:51;;;;;;;21.73;6.20;;;31.70;55.00;;;;;;5034403;28;20053;-67
2023/09/10 09:03:55;;;;;;;13.00;6.43;;;31.70;55.20;;;;;;5034394;28;20045;-67
2023/09/10 09:07:02;;;;;;;28.60;7.72;;;31.90;55.20;;;;;;5034299;28;20048;-67
2023/09/10 09:10:08;;;;;;;16.25;7.22;;;32.10;55.00;;;;;;5033965;28;20040;-67
2023/09/10 09:13:13;;;;;;;16.05;7.57;;;32.20;55.00;;;;;;5033902;28;20057;-68
2023/09/10 09:16:19;;;;;;;20.45;6.90;;;32.10;54.60;;;;;;5033075;28;20044;-68
2023/09/10 09:19:28;;;;;;;23.52;6.93;;;32.00;54.80;;;;;;5034082;28;20049;-67
2023/09/10 09:22:34;;;;;;;19.92;6.88;;;32.20;55.10;;;;;;5034174;28;20044;-68
2023/09/10 09:25:38;;;;;;;20.55;5.55;;;32.30;54.80;;;;;;5033745;28;20048;-67
2023/09/10 09:28:42;;;;;;;14.88;5.50;;;32.30;54.30;;;;;;5033833;28;20045;-68
2023/09/10 09:31:46;;;;;;;9.88;5.30;;;32.20;54.90;;;;;;5033652;28;20060;-68
2023/09/10 09:34:50;;;;;;;25.25;7.00;;;32.40;55.40;;;;;;5032878;28;20045;-69
2023/09/10 09:37:54;;;;;;;15.55;6.10;;;32.50;54.20;;;;;;5033690;28;20056;-67
2023/09/10 09:41:02;;;;;;;15.05;5.80;;;32.50;54.60;;;;;;5033503;28;20593;-68
2023/09/10 09:44:07;;;;;;;12.88;6.18;;;32.40;54.80;;;;;;5033499;28;20052;-67
2023/09/10 09:47:14;;;;;;;16.45;6.95;;;32.40;55.00;;;;;;5033427;28;20049;-68
2023/09/10 09:50:21;;;;;;;11.70;6.20;;;32.50;54.40;;;;;;5033249;28;20048;-68
2023/09/10 09:53:27;;;;;;;21.67;6.75;;;32.60;54.50;;;;;;5033367;28;20504;-68
2023/09/10 09:56:31;;;;;;;12.93;6.70;;;32.80;54.20;;;;;;5033508;28;20053;-68
2023/09/10 09:59:38;;;;;;;14.82;6.10;;;32.90;54.40;;;;;;5031159;28;20052;-68
2023/09/10 10:02:43;;;;;;;13.48;6.57;;;33.10;54.10;;;;;;5033322;28;20048;-67
2023/09/10 10:05:54;;;;;;;12.88;5.47;;;33.20;54.70;;;;;;5032840;28;20045;-68
2023/09/10 10:09:01;;;;;;;16.85;6.63;;;33.20;53.80;;;;;;5033333;28;20060;-67
2023/09/10 10:12:07;;;;;;;20.80;6.45;;;33.20;53.70;;;;;;5033067;28;20061;-67
2023/09/10 10:15:12;;;;;;;15.18;6.43;;;33.10;54.20;;;;;;5032987;28;20053;-68
2023/09/10 10:18:18;;;;;;;9.43;5.57;;;33.10;53.80;;;;;;5032635;28;20048;-68
2023/09/10 10:21:23;;;;;;;15.82;5.55;;;33.20;53.80;;;;;;5032153;28;20049;-68
2023/09/10 10:24:27;;;;;;;15.63;6.30;;;33.40;54.20;;;;;;5032603;28;20052;-68
2023/09/10 10:27:35;;;;;;;12.00;5.50;;;33.60;53.90;;;;;;5032936;28;20052;-68
2023/09/10 10:31:11;;;;;;;17.88;5.85;;;33.50;53.30;;;;;;5032600;28;20040;-68
2023/09/10 10:34:18;;;;;;;11.60;5.82;;;33.50;53.20;;;;;;5032302;28;20167;-68
2023/09/10 10:37:42;;;;;;;21.80;5.85;;;33.50;53.50;;;;;;5032629;28;20048;-68
2023/09/10 10:40:49;;;;;;;16.75;7.63;;;33.40;53.40;;;;;;5032357;28;20040;-68
2023/09/10 10:44:04;;;;;;;16.73;6.68;;;33.30;53.80;;;;;;5032331;28;20048;-68
2023/09/10 10:47:38;;;;;;;12.90;5.95;;;33.30;53.70;;;;;;5032503;28;20048;-68
2023/09/10 10:50:44;;;;;;;12.90;5.43;;;33.40;54.40;;;;;;5032338;28;20053;-67
2023/09/10 10:53:49;;;;;;;10.80;5.25;;;33.40;53.60;;;;;;5032200;28;20048;-67
2023/09/10 10:56:53;;;;;;;8.73;5.38;;;33.30;53.50;;;;;;5032360;28;20559;-69
2023/09/10 10:59:58;;;;;;;7.53;4.93;;;33.40;53.60;;;;;;5032227;28;20064;-69
2023/09/10 11:03:15;;;;;;;8.88;5.13;;;33.40;53.40;;;;;;5032162;28;20049;-69
2023/09/10 11:06:20;;;;;;;14.30;5.97;;;33.40;53.50;;;;;;5031684;28;20048;-69
2023/09/10 11:09:35;;;;;;;13.05;5.93;;;33.40;53.30;;;;;;5032030;28;20040;-68
2023/09/10 11:12:59;;;;;;;16.90;5.15;;;33.30;53.60;;;;;;5031673;28;20056;-68
2023/09/10 11:16:06;;;;;;;8.48;5.93;;;33.00;53.20;;;;;;5031835;28;20048;-69
2023/09/10 11:19:43;;;;;;;24.10;16.05;;;33.00;54.10;;;;;;5031815;28;20052;-68
2023/09/10 11:23:08;;;;;;;14.82;5.40;;;33.00;54.20;;;;;;5031527;28;20045;-67
2023/09/10 11:26:14;;;;;;;11.73;4.82;;;33.00;53.70;;;;;;5031746;28;20052;-67
2023/09/10 11:29:19;;;;;;;10.43;5.35;;;33.00;53.70;;;;;;5031466;28;20041;-69
2023/09/10 11:32:23;;;;;;;10.80;4.70;;;33.00;53.50;;;;;;5031307;28;20061;-67
2023/09/10 11:35:27;;;;;;;10.27;4.78;;;33.00;53.90;;;;;;5031292;28;20044;-67
2023/09/10 11:38:31;;;;;;;16.55;5.65;;;33.00;53.80;;;;;;5030618;28;20422;-68
2023/09/10 11:41:35;;;;;;;12.55;4.95;;;33.00;54.30;;;;;;5031656;28;20056;-68
2023/09/10 11:44:39;;;;;;;9.45;4.45;;;33.00;53.90;;;;;;5031391;28;20068;-68
2023/09/10 11:47:44;;;;;;;15.00;5.68;;;32.90;54.70;;;;;;5031313;28;20060;-68
2023/09/10 11:50:51;;;;;;;10.23;5.15;;;33.00;54.60;;;;;;5031092;28;20037;-68
2023/09/10 11:53:56;;;;;;;13.77;7.80;;;33.00;54.20;;;;;;5031199;28;20060;-68
2023/09/10 11:57:01;;;;;;;12.60;5.40;;;32.80;54.00;;;;;;5031063;28;20386;-68
2023/09/10 12:00:12;;;;;;;6.18;4.35;;;32.80;54.80;;;;;;5030656;28;20401;-68
2023/09/10 12:03:16;;;;;;;12.98;6.00;;;32.90;54.70;;;;;;5030932;28;20542;-68
2023/09/10 12:06:20;;;;;;;13.95;5.82;;;32.80;54.40;;;;;;5030027;28;20048;-68
2023/09/10 12:09:31;;;;;;;15.30;6.20;;;32.80;54.70;;;;;;5030974;28;20045;-68
2023/09/10 12:12:36;;;;;;;;;;;32.80;54.40;;;;;;5031109;28;20056;-68
2023/09/10 12:15:41;;;;;;;15.10;5.78;;;32.80;54.60;;;;;;5030873;28;19909;-68
2023/09/10 12:18:47;;;;;;;10.90;5.25;;;32.80;54.50;;;;;;5031083;28;20048;-68
2023/09/10 12:21:51;;;;;;;17.80;5.18;;;32.80;54.60;;;;;;5031197;28;20056;-69
2023/09/10 12:24:55;;;;;;;10.27;5.97;;;32.80;54.70;;;;;;5034988;28;20049;-69
2023/09/10 12:27:59;;;;;;;9.35;5.05;;;32.80;54.90;;;;;;5035025;28;20048;-68
2023/09/10 12:31:06;;;;;;;27.30;6.63;;;32.80;55.00;;;;;;5035269;28;20045;-68
2023/09/10 12:34:11;;;;;;;10.90;5.13;;;32.90;55.10;;;;;;5034601;28;20053;-68
2023/09/10 12:37:18;;;;;;;18.42;6.35;;;32.90;55.30;;;;;;5035051;28;20048;-69
2023/09/10 12:40:24;;;;;;;11.10;5.50;;;32.80;54.90;;;;;;5035051;28;20052;-69
2023/09/10 12:43:29;;;;;;;12.07;5.43;;;32.80;55.00;;;;;;5034895;28;20052;-69
2023/09/10 12:46:34;;;;;;;9.85;5.45;;;32.80;55.00;;;;;;5034583;28;20037;-69
2023/09/10 12:49:38;;;;;;;13.85;5.57;;;32.80;55.20;;;;;;5034467;28;20088;-69
2023/09/10 12:52:43;;;;;;;6.90;5.03;;;32.90;55.70;;;;;;5034271;28;20428;-69
2023/09/10 12:55:47;;;;;;;9.80;5.35;;;32.90;55.90;;;;;;5034283;28;20044;-67
2023/09/10 12:58:51;;;;;;;7.68;5.28;;;32.90;55.40;;;;;;5034296;28;20060;-68
2023/09/10 13:02:01;;;;;;;11.02;5.53;;;32.90;55.30;;;;;;5033984;28;20044;-68
2023/09/10 13:05:05;;;;;;;10.32;6.00;;;32.90;55.40;;;;;;5033324;28;20044;-68
2023/09/10 13:08:09;;;;;;;11.43;5.55;;;32.90;55.50;;;;;;5033877;28;20068;-69
2023/09/10 13:11:13;;;;;;;9.25;5.60;;;32.80;55.50;;;;;;5034185;28;20044;-69
2023/09/10 13:14:17;;;;;;;9.32;5.25;;;32.80;56.40;;;;;;5033950;28;20405;-69
2023/09/10 13:17:21;;;;;;;10.23;5.80;;;32.90;56.80;;;;;;5034210;28;20049;-69
2023/09/10 13:20:28;;;;;;;12.05;6.25;;;32.80;55.70;;;;;;5034009;28;20056;-68
2023/09/10 13:23:32;;;;;;;10.70;5.45;;;32.80;56.30;;;;;;5033689;28;20053;-68
2023/09/10 13:26:36;;;;;;;11.77;5.55;;;32.80;56.10;;;;;;5034020;28;20444;-69
2023/09/10 13:29:40;;;;;;;8.77;5.25;;;32.80;56.00;;;;;;5033986;28;20062;-69
2023/09/10 13:32:44;;;;;;;12.02;5.20;;;32.80;55.60;;;;;;5033362;28;20677;-68
2023/09/10 13:35:47;;;;;;;10.80;6.22;;;32.70;55.20;;;;;;5033682;28;20048;-69
2023/09/10 13:38:52;;;;;;;7.90;5.40;;;32.70;55.30;;;;;;5033763;28;20053;-69
2023/09/10 13:41:55;;;;;;;6.40;5.38;;;32.70;55.40;;;;;;5033665;28;20048;-69
2023/09/10 13:44:59;;;;;;;13.80;6.03;;;32.70;55.70;;;;;;5033256;28;20041;-69
2023/09/10 13:48:04;;;;;;;9.98;5.93;;;32.70;56.10;;;;;;5033310;28;20066;-69
2023/09/10 13:51:08;;;;;;;13.45;6.43;;;32.70;56.30;;;;;;5032593;28;20041;-69
2023/09/10 13:54:13;;;;;;;13.55;6.10;;;32.70;57.00;;;;;;5031853;28;20056;-69
2023/09/10 13:57:17;;;;;;;12.45;6.57;;;32.70;57.60;;;;;;5031041;28;20037;-69
2023/09/10 14:00:21;;;;;;;10.45;6.55;;;32.70;57.60;;;;;;5032097;28;20060;-68
2023/09/10 14:03:27;;;;;;;7.50;5.97;;;32.60;57.50;;;;;;5032279;28;20049;-68
2023/09/10 14:06:32;;;;;;;10.50;5.85;;;32.60;57.70;;;;;;5032568;28;20057;-71
2023/09/10 14:09:36;;;;;;;15.82;6.15;;;32.60;58.10;;;;;;5032857;28;20036;-69
2023/09/10 14:12:40;;;;;;;7.75;5.70;;;32.60;58.40;;;;;;5032851;28;20512;-69
2023/09/10 14:15:44;;;;;;;12.63;6.45;;;32.60;58.50;;;;;;5033053;28;20048;-68
2023/09/10 14:18:48;;;;;;;10.52;6.03;;;32.50;58.60;;;;;;5032903;28;20040;-70
2023/09/10 14:21:52;;;;;;;15.25;5.85;;;32.50;59.50;;;;;;5032696;28;20108;-69
2023/09/10 14:24:56;;;;;;;11.20;6.18;;;32.50;58.80;;;;;;5032453;28;20036;-69
2023/09/10 14:28:00;;;;;;;12.80;5.85;;;32.50;59.10;;;;;;5032555;28;20040;-69
2023/09/10 14:31:04;;;;;;;7.43;5.50;;;32.40;59.30;;;;;;5031889;28;20037;-69
2023/09/10 14:34:08;;;;;;;9.95;6.18;;;32.40;59.60;;;;;;5032026;28;20056;-68
2023/09/10 14:37:12;;;;;;;9.32;5.45;;;32.40;59.70;;;;;;5032593;28;20040;-69
2023/09/10 14:40:17;;;;;;;6.47;5.63;;;32.30;59.40;;;;;;5032495;28;20052;-69
2023/09/10 14:43:21;;;;;;;10.85;6.13;;;32.30;59.20;;;;;;5032375;28;20385;-69
2023/09/10 14:46:28;;;;;;;15.00;6.82;;;32.30;59.20;;;;;;5031752;28;20048;-68
2023/09/10 14:49:33;;;;;;;18.48;6.30;;;32.20;58.90;;;;;;5032286;28;20500;-68
2023/09/10 14:52:37;;;;;;;9.55;5.53;;;32.20;59.40;;;;;;5032113;28;20061;-68
2023/09/10 14:55:41;;;;;;;13.45;7.18;;;32.10;59.50;;;;;;5032177;28;20048;-69
2023/09/10 14:58:45;;;;;;;9.85;7.35;;;32.10;59.30;;;;;;5032089;28;20048;-69
2023/09/10 15:01:48;;;;;;;18.70;9.18;;;32.10;59.50;;;;;;5032313;28;20499;-69
2023/09/10 15:04:52;;;;;;;16.95;7.32;;;32.00;59.50;;;;;;5031967;28;20049;-69
2023/09/10 15:07:57;;;;;;;6.78;5.75;;;32.00;60.00;;;;;;5042432;28;20044;-68
2023/09/10 15:11:01;;;;;;;14.55;5.60;;;32.00;60.30;;;;;;5031805;28;20116;-68
2023/09/10 15:14:05;;;;;;;7.20;5.20;;;32.00;60.50;;;;;;5031449;28;20061;-69
2023/09/10 15:17:09;;;;;;;6.20;5.05;;;31.90;60.70;;;;;;5031662;28;20048;-69
2023/09/10 15:20:13;;;;;;;9.70;4.90;;;31.90;60.70;;;;;;5031036;28;20504;-68
2023/09/10 15:23:17;;;;;;;16.33;4.80;;;31.90;60.60;;;;;;5031736;28;20044;-69
2023/09/10 15:26:22;;;;;;;8.38;5.03;;;31.80;60.40;;;;;;5031526;28;20080;-68
2023/09/10 15:29:26;;;;;;;7.75;5.00;;;31.80;60.20;;;;;;5031648;28;20370;-68
2023/09/10 15:32:30;;;;;;;6.80;4.22;;;31.80;60.10;;;;;;5031392;28;20060;-69
2023/09/10 15:35:34;;;;;;;5.68;4.47;;;31.70;60.10;;;;;;5031218;28;20044;-68
2023/09/10 15:38:40;;;;;;;7.63;4.90;;;31.70;60.00;;;;;;5030514;28;20064;-69
2023/09/10 15:41:46;;;;;;;8.43;5.50;;;31.70;60.10;;;;;;5031442;28;20052;-69
2023/09/10 15:44:51;;;;;;;7.90;4.88;;;31.70;60.20;;;;;;5031376;28;20048;-69
2023/09/10 15:47:55;;;;;;;7.47;4.72;;;31.60;60.20;;;;;;5031026;28;20409;-69
2023/09/10 15:51:02;;;;;;;9.85;5.45;;;31.60;60.70;;;;;;5031343;28;20052;-69
2023/09/10 15:54:06;;;;;;;11.68;5.40;;;31.50;60.50;;;;;;5030883;28;20061;-68